Time;durP1;ratioP1;P1;durP2;ratioP2;P2;SDS_P1;SDS_P2;PMS_P1;PMS_P2;Temp;Humidity;BMP_temperature;BMP_pressure;BME280_temperature;BME280_humidity;BME280_pressure;Samples;Min_cycle;Max_cycle;Signal;HPM_P1;HPM_P2
2022/11/07 00:01:14;;;;;;;1.37;1.27;;;13.30;76.70;13.50;96336.00;;;;5050015;28;20832;-85
2022/11/07 00:03:41;;;;;;;1.00;1.00;;;13.30;76.50;13.50;96338.00;;;;5049454;28;20200;-85
2022/11/07 00:06:08;;;;;;;1.37;1.00;;;13.30;76.20;13.50;96341.00;;;;5049502;28;20287;-85
2022/11/07 00:08:35;;;;;;;1.20;1.10;;;13.30;76.40;13.50;96346.00;;;;5050229;28;20208;-85
2022/11/07 00:11:04;;;;;;;1.00;1.00;;;13.40;76.30;13.50;96360.00;;;;5050429;28;20308;-85
2022/11/07 00:13:33;;;;;;;0.90;0.90;;;13.40;76.30;13.60;96365.00;;;;5049635;28;20201;-85
2022/11/07 00:16:03;;;;;;;1.33;0.87;;;13.40;75.80;13.60;96361.00;;;;5050352;28;20291;-85
2022/11/07 00:18:30;;;;;;;0.93;0.93;;;13.40;75.70;13.60;96360.00;;;;5052251;28;20597;-86
2022/11/07 00:21:01;;;;;;;1.20;1.10;;;13.40;75.50;13.60;96365.00;;;;5049821;28;20694;-86
2022/11/07 00:23:28;;;;;;;0.80;0.80;;;13.40;75.00;13.60;96366.00;;;;5050141;28;20292;-86
2022/11/07 00:26:01;;;;;;;2.53;0.97;;;13.40;75.80;13.60;96365.00;;;;5053779;28;20236;-86
2022/11/07 00:28:28;;;;;;;1.10;1.10;;;13.40;75.10;13.60;96371.00;;;;5050485;28;20284;-86
2022/11/07 00:30:58;;;;;;;0.80;0.80;;;13.40;74.80;13.60;96372.00;;;;5052859;28;20225;-86
2022/11/07 00:33:25;;;;;;;0.90;0.90;;;13.40;74.50;13.60;96369.00;;;;5045147;28;20205;-86
2022/11/07 00:35:54;;;;;;;0.80;0.80;;;13.50;74.40;13.60;96371.00;;;;5052911;28;20291;-86
2022/11/07 00:38:21;;;;;;;0.73;0.73;;;13.50;74.30;13.60;96374.00;;;;5051702;28;20316;-86
2022/11/07 00:40:55;;;;;;;0.70;0.70;;;13.50;74.10;13.60;96379.00;;;;5053456;28;20259;-85
2022/11/07 00:43:22;;;;;;;0.97;0.80;;;13.40;73.70;13.60;96383.00;;;;5045770;28;20288;-86
2022/11/07 00:45:49;;;;;;;1.10;1.00;;;13.50;74.00;13.60;96386.00;;;;5050086;28;20706;-86
2022/11/07 00:48:18;;;;;;;0.93;0.80;;;13.50;74.00;13.60;96389.00;;;;5053860;28;20239;-86
2022/11/07 00:50:46;;;;;;;1.00;0.90;;;13.50;73.90;13.60;96391.00;;;;5054182;28;20299;-86
2022/11/07 00:53:13;;;;;;;0.90;0.87;;;13.50;73.80;13.60;96389.00;;;;5048189;28;20229;-86
2022/11/07 00:55:40;;;;;;;0.90;0.90;;;13.50;73.90;13.60;96393.00;;;;5049828;28;20228;-86
2022/11/07 00:58:08;;;;;;;0.70;0.70;;;13.50;73.90;13.60;96392.00;;;;5053317;28;20307;-86
2022/11/07 01:00:36;;;;;;;0.60;0.60;;;13.50;73.80;13.60;96393.00;;;;5052709;28;20307;-86
2022/11/07 01:05:58;;;;;;;0.70;0.70;;;13.50;73.70;13.60;96400.00;;;;5043742;28;20243;-85
2022/11/07 01:08:25;;;;;;;1.23;0.93;;;13.50;73.80;13.60;96406.00;;;;5052910;28;20231;-85
2022/11/07 01:10:53;;;;;;;0.80;0.80;;;13.50;74.70;13.70;96406.00;;;;5053184;28;20303;-86
2022/11/07 01:13:20;;;;;;;0.70;0.70;;;13.50;73.90;13.70;96410.00;;;;5053536;28;20201;-86
2022/11/07 01:15:48;;;;;;;0.97;0.97;;;13.50;73.80;13.70;96404.00;;;;5052843;28;20775;-85
2022/11/07 01:18:15;;;;;;;0.80;0.80;;;13.50;73.80;13.70;96403.00;;;;5052587;28;20220;-86
2022/11/07 01:20:42;;;;;;;0.80;0.80;;;13.50;73.80;13.70;96408.00;;;;5053390;28;20765;-86
2022/11/07 01:23:11;;;;;;;0.70;0.70;;;13.60;73.80;13.70;96412.00;;;;5051970;28;20291;-85
2022/11/07 01:25:39;;;;;;;1.10;1.00;;;13.60;73.90;13.70;96417.00;;;;5053108;28;20280;-86
2022/11/07 01:28:08;;;;;;;0.90;0.90;;;13.60;73.90;13.80;96421.00;;;;5052842;28;20232;-85
2022/11/07 01:30:39;;;;;;;1.63;0.93;;;13.60;73.80;13.80;96422.00;;;;5052661;28;20223;-86
2022/11/07 01:33:07;;;;;;;1.63;0.90;;;13.60;73.70;13.80;96425.00;;;;5052420;28;20231;-85
2022/11/07 01:35:35;;;;;;;0.70;0.70;;;13.60;73.70;13.80;96424.00;;;;5052183;28;20181;-86
2022/11/07 01:38:02;;;;;;;1.17;0.70;;;13.60;73.60;13.80;96426.00;;;;5052970;28;20227;-86
2022/11/07 01:40:32;;;;;;;0.90;0.90;;;13.60;73.80;13.70;96423.00;;;;5051846;28;20315;-85
2022/11/07 01:42:59;;;;;;;0.77;0.77;;;13.60;73.70;13.70;96425.00;;;;5048559;28;20628;-85
2022/11/07 01:45:30;;;;;;;0.77;0.70;;;13.60;73.60;13.70;96424.00;;;;5044433;28;20225;-86
2022/11/07 01:48:01;;;;;;;0.80;0.80;;;13.60;73.50;13.70;96420.00;;;;5051646;28;20200;-86
2022/11/07 01:50:30;;;;;;;0.90;0.90;;;13.60;73.60;13.70;96436.00;;;;5040190;28;20227;-86
2022/11/07 01:52:58;;;;;;;0.80;0.80;;;13.60;73.80;13.70;96433.00;;;;5051131;28;20292;-86
2022/11/07 01:55:32;;;;;;;0.83;0.83;;;13.60;74.00;13.70;96430.00;;;;5052145;28;20235;-85
2022/11/07 01:58:03;;;;;;;0.80;0.80;;;13.60;74.40;13.70;96428.00;;;;5050994;28;20255;-85
2022/11/07 02:00:33;;;;;;;1.13;0.83;;;13.60;74.60;13.70;96435.00;;;;5052833;28;20231;-86
2022/11/07 02:03:07;;;;;;;1.03;1.03;;;13.60;74.80;13.70;96430.00;;;;5052013;28;20284;-86
2022/11/07 02:05:40;;;;;;;1.10;0.83;;;13.60;75.00;13.70;96442.00;;;;5045703;28;20199;-86
2022/11/07 02:08:11;;;;;;;3.73;1.10;;;13.60;75.20;13.70;96441.00;;;;5045028;28;20845;-86
2022/11/07 02:10:43;;;;;;;0.70;0.70;;;13.60;75.20;13.70;96439.00;;;;5052811;28;20311;-85
2022/11/07 02:13:18;;;;;;;0.87;0.87;;;13.60;75.20;13.70;96439.00;;;;5051904;28;20189;-86
2022/11/07 02:15:45;;;;;;;0.70;0.70;;;13.60;75.20;13.70;96432.00;;;;5052130;28;20283;-86
2022/11/07 02:18:13;;;;;;;1.57;0.90;;;13.60;75.10;13.70;96441.00;;;;5051343;28;20315;-86
2022/11/07 02:20:40;;;;;;;0.70;0.70;;;13.60;75.20;13.70;96436.00;;;;5052035;28;20246;-85
2022/11/07 02:23:13;;;;;;;0.70;0.70;;;13.60;75.40;13.70;96435.00;;;;5041861;28;20288;-85
2022/11/07 02:25:42;;;;;;;0.80;0.80;;;13.60;75.40;13.70;96429.00;;;;5049162;28;20288;-86
2022/11/07 02:28:13;;;;;;;0.87;0.87;;;13.60;75.50;13.70;96431.00;;;;5052030;28;20669;-86
2022/11/07 02:30:40;;;;;;;0.83;0.83;;;13.60;75.40;13.70;96423.00;;;;5051718;28;20654;-86
2022/11/07 02:33:18;;;;;;;0.83;0.83;;;13.60;75.20;13.70;96428.00;;;;5051441;28;20284;-86
2022/11/07 02:35:48;;;;;;;0.70;0.70;;;13.50;75.60;13.70;96423.00;;;;5047800;28;20284;-85
2022/11/07 02:38:21;;;;;;;0.67;0.67;;;13.60;75.80;13.80;96424.00;;;;5052018;28;20319;-85
2022/11/07 02:40:54;;;;;;;0.80;0.80;;;13.60;76.00;13.80;96425.00;;;;5050625;28;20304;-85
2022/11/07 02:43:26;;;;;;;1.33;0.90;;;13.60;77.00;13.80;96421.00;;;;5051818;28;20295;-86
2022/11/07 02:45:56;;;;;;;0.90;0.90;;;13.60;76.50;13.80;96414.00;;;;5032337;28;20269;-86
2022/11/07 02:48:28;;;;;;;0.80;0.77;;;13.60;76.40;13.80;96418.00;;;;5046652;28;20192;-85
2022/11/07 02:50:55;;;;;;;0.80;0.80;;;13.60;76.40;13.80;96421.00;;;;5052013;28;20304;-86
2022/11/07 02:53:22;;;;;;;0.77;0.63;;;13.70;76.70;13.80;96414.00;;;;5051872;28;20269;-85
2022/11/07 02:55:51;;;;;;;0.90;0.90;;;13.70;76.70;13.80;96417.00;;;;5031959;28;20201;-85
2022/11/07 02:58:18;;;;;;;0.80;0.80;;;13.70;76.70;13.90;96423.00;;;;5049727;28;20307;-85
2022/11/07 03:00:45;;;;;;;0.90;0.90;;;13.60;76.70;13.90;96420.00;;;;5051469;28;20209;-85
2022/11/07 03:03:13;;;;;;;0.80;0.80;;;13.70;76.90;13.90;96416.00;;;;5050898;28;20291;-85
2022/11/07 03:05:40;;;;;;;0.90;0.90;;;13.70;76.90;13.90;96427.00;;;;5050878;28;20192;-86
2022/11/07 03:08:07;;;;;;;0.70;0.70;;;13.70;76.80;13.90;96425.00;;;;5050131;28;20205;-85
2022/11/07 03:10:34;;;;;;;0.80;0.80;;;13.70;76.90;13.90;96426.00;;;;5050943;28;20217;-85
2022/11/07 03:13:03;;;;;;;0.70;0.70;;;13.70;76.80;13.90;96421.00;;;;5046622;28;20651;-85
2022/11/07 03:15:30;;;;;;;0.53;0.53;;;13.70;76.90;13.90;96429.00;;;;5038690;28;20204;-86
2022/11/07 03:17:59;;;;;;;0.80;0.80;;;13.70;76.80;13.90;96437.00;;;;5050608;28;20232;-85
2022/11/07 03:20:26;;;;;;;0.73;0.73;;;13.70;76.70;13.80;96429.00;;;;5050521;28;20248;-85
2022/11/07 03:22:53;;;;;;;0.70;0.70;;;13.70;76.70;13.80;96441.00;;;;5042568;28;20288;-85
2022/11/07 03:25:20;;;;;;;0.60;0.60;;;13.70;76.50;13.80;96432.00;;;;5045365;28;20279;-86
2022/11/07 03:27:49;;;;;;;0.80;0.80;;;13.70;76.30;13.80;96440.00;;;;5050799;28;20287;-86
2022/11/07 03:30:18;;;;;;;1.63;0.90;;;13.70;76.10;13.70;96434.00;;;;5050563;28;20220;-86
2022/11/07 03:32:45;;;;;;;0.70;0.70;;;13.70;76.00;13.70;96450.00;;;;5045574;28;20231;-86
2022/11/07 03:35:13;;;;;;;0.70;0.70;;;13.60;75.80;13.70;96450.00;;;;5043045;28;20617;-85
2022/11/07 03:37:40;;;;;;;0.80;0.80;;;13.60;75.80;13.60;96447.00;;;;5038903;28;20275;-86
2022/11/07 03:40:08;;;;;;;0.63;0.63;;;13.60;75.90;13.60;96452.00;;;;5050983;28;20626;-86
2022/11/07 03:42:39;;;;;;;0.73;0.73;;;13.60;75.80;13.60;96451.00;;;;5051497;28;20287;-86
2022/11/07 03:45:08;;;;;;;0.60;0.60;;;13.50;75.70;13.50;96448.00;;;;5050423;28;20212;-85
2022/11/07 03:47:39;;;;;;;1.57;0.70;;;13.50;75.70;13.50;96444.00;;;;5035624;28;20208;-85
2022/11/07 03:50:09;;;;;;;0.80;0.80;;;13.50;75.60;13.50;96457.00;;;;5050831;28;20232;-86
2022/11/07 03:52:37;;;;;;;0.77;0.77;;;13.40;75.60;13.40;96457.00;;;;5051813;28;20291;-86
2022/11/07 03:55:04;;;;;;;0.90;0.80;;;13.40;75.80;13.40;96454.00;;;;5050857;28;20193;-85
2022/11/07 03:57:31;;;;;;;0.60;0.60;;;13.40;75.90;13.40;96455.00;;;;5054469;28;20228;-86
2022/11/07 03:59:59;;;;;;;1.80;0.70;;;13.40;76.00;13.40;96458.00;;;;5054720;28;20231;-86
2022/11/07 04:02:26;;;;;;;0.70;0.70;;;13.40;76.10;13.40;96461.00;;;;5054499;28;20203;-86
2022/11/07 04:04:54;;;;;;;1.30;0.70;;;13.40;76.20;13.40;96460.00;;;;5050851;28;20235;-86
2022/11/07 04:07:21;;;;;;;0.70;0.70;;;13.30;76.10;13.40;96458.00;;;;5053052;28;20685;-85
2022/11/07 04:09:48;;;;;;;0.87;0.80;;;13.40;76.20;13.40;96460.00;;;;5053719;28;20303;-86
2022/11/07 04:17:50;;;;;;;0.80;0.80;;;13.40;76.30;13.50;96464.00;;;;5053662;28;20288;-86
2022/11/07 04:20:19;;;;;;;0.50;0.50;;;13.40;76.20;13.50;96466.00;;;;5053963;28;20974;-86
2022/11/07 04:22:46;;;;;;;1.13;0.90;;;13.40;76.10;13.50;96470.00;;;;5053828;28;20288;-85
2022/11/07 04:25:13;;;;;;;1.00;0.90;;;13.30;76.00;13.40;96467.00;;;;5038371;28;20284;-86
2022/11/07 04:27:42;;;;;;;0.70;0.70;;;13.30;76.00;13.40;96468.00;;;;5043609;28;20188;-86
2022/11/07 04:30:19;;;;;;;0.73;0.73;;;13.40;76.00;13.40;96470.00;;;;5047306;28;20228;-86
2022/11/07 04:32:47;;;;;;;0.70;0.70;;;13.30;75.70;13.40;96475.00;;;;5051654;28;20228;-86
2022/11/07 04:35:15;;;;;;;0.67;0.67;;;13.30;75.50;13.30;96488.00;;;;5053130;28;20280;-86
2022/11/07 04:37:44;;;;;;;0.80;0.80;;;13.30;75.50;13.30;96492.00;;;;5053900;28;20214;-85
2022/11/07 04:40:12;;;;;;;0.87;0.87;;;13.30;75.40;13.20;96488.00;;;;5052863;28;20220;-86
2022/11/07 04:42:40;;;;;;;1.00;1.00;;;13.20;75.30;13.20;96497.00;;;;5052921;28;20288;-86
2022/11/07 04:45:08;;;;;;;1.50;0.80;;;13.20;75.10;13.10;96496.00;;;;5053014;28;20296;-86
2022/11/07 04:47:36;;;;;;;1.03;1.03;;;13.10;75.00;13.10;96480.00;;;;5053604;28;20327;-86
2022/11/07 04:50:05;;;;;;;1.13;1.10;;;13.10;75.00;13.00;96476.00;;;;5053005;28;20307;-86
2022/11/07 04:52:32;;;;;;;1.57;1.00;;;13.00;75.00;13.00;96486.00;;;;5053218;28;20291;-86
2022/11/07 04:55:00;;;;;;;1.33;1.23;;;13.00;75.00;12.90;96483.00;;;;5053374;28;20247;-85
2022/11/07 04:57:27;;;;;;;0.90;0.90;;;13.00;75.00;12.90;96486.00;;;;5053095;28;20232;-86
2022/11/07 04:59:55;;;;;;;1.37;1.00;;;12.90;74.90;12.80;96494.00;;;;5052988;28;20303;-86
2022/11/07 05:02:24;;;;;;;0.80;0.80;;;12.90;74.90;12.80;96486.00;;;;5051219;28;20650;-86
2022/11/07 05:04:51;;;;;;;1.97;1.00;;;12.80;74.90;12.70;96486.00;;;;5049412;28;20677;-86
2022/11/07 05:07:20;;;;;;;0.90;0.87;;;12.80;74.90;12.70;96483.00;;;;5044874;28;20216;-85
2022/11/07 05:09:47;;;;;;;0.70;0.70;;;12.70;74.90;12.60;96484.00;;;;5053090;28;20598;-86
2022/11/07 05:12:15;;;;;;;1.23;1.13;;;12.70;74.90;12.60;96480.00;;;;5053883;28;20283;-86
2022/11/07 05:14:42;;;;;;;1.00;1.00;;;12.60;75.00;12.60;96487.00;;;;5052895;28;20220;-86
2022/11/07 05:17:15;;;;;;;0.80;0.80;;;12.60;75.10;12.50;96489.00;;;;5053149;28;20199;-86
2022/11/07 05:19:43;;;;;;;0.80;0.80;;;12.60;75.20;12.50;96476.00;;;;5052944;28;20228;-86
2022/11/07 05:24:55;;;;;;;0.87;0.87;;;12.40;74.90;12.40;96487.00;;;;5046120;28;20269;-86
2022/11/07 05:27:24;;;;;;;1.93;1.00;;;12.40;75.10;12.30;96489.00;;;;5053661;28;20753;-86
2022/11/07 05:29:51;;;;;;;1.00;1.00;;;12.40;75.60;12.30;96492.00;;;;5053478;28;20235;-86
2022/11/07 05:32:19;;;;;;;0.80;0.80;;;12.40;75.30;12.20;96494.00;;;;5053474;28;20292;-86
2022/11/07 05:34:46;;;;;;;1.27;1.17;;;12.30;75.50;12.20;96495.00;;;;5053154;28;20596;-86
2022/11/07 05:37:13;;;;;;;1.03;1.00;;;12.20;75.50;12.20;96499.00;;;;5052598;28;20623;-86
2022/11/07 05:39:41;;;;;;;1.00;1.00;;;12.20;75.40;12.10;96502.00;;;;5052504;28;20577;-86
2022/11/07 05:42:08;;;;;;;1.30;1.20;;;12.20;75.40;12.10;96507.00;;;;5047076;28;20288;-87
2022/11/07 05:44:36;;;;;;;1.30;1.20;;;12.10;75.40;12.10;96511.00;;;;5050164;28;20262;-86
2022/11/07 05:47:04;;;;;;;1.10;1.00;;;12.10;75.50;12.00;96514.00;;;;5051320;28;20256;-85
2022/11/07 05:49:31;;;;;;;2.17;1.10;;;12.10;75.50;12.00;96516.00;;;;5053575;28;20236;-85
2022/11/07 05:51:58;;;;;;;1.10;0.93;;;12.10;75.60;12.00;96521.00;;;;5053256;28;20572;-86
2022/11/07 05:54:26;;;;;;;1.47;1.30;;;12.00;75.70;12.00;96513.00;;;;5052782;28;20280;-85
2022/11/07 05:56:57;;;;;;;1.23;1.10;;;12.00;75.70;12.00;96517.00;;;;5052782;28;20212;-85
2022/11/07 05:59:24;;;;;;;1.37;1.20;;;12.10;75.70;11.90;96513.00;;;;5052712;28;20209;-86
2022/11/07 06:01:53;;;;;;;0.97;0.97;;;11.90;75.50;11.90;96518.00;;;;5052278;28;20235;-85
2022/11/07 06:04:20;;;;;;;1.50;1.10;;;11.90;75.50;11.80;96536.00;;;;5052225;28;20688;-85
2022/11/07 06:06:47;;;;;;;1.27;1.07;;;11.90;75.40;11.80;96536.00;;;;5052341;28;20311;-86
2022/11/07 06:09:15;;;;;;;1.47;1.00;;;12.00;75.50;11.80;96543.00;;;;5052958;28;20291;-86
2022/11/07 06:11:42;;;;;;;2.23;1.10;;;11.80;75.40;11.80;96536.00;;;;5052105;28;20248;-85
2022/11/07 06:14:09;;;;;;;3.07;1.30;;;11.80;75.30;11.70;96536.00;;;;5051982;28;20251;-85
2022/11/07 06:16:36;;;;;;;1.00;0.90;;;11.70;75.20;11.70;96542.00;;;;5035724;28;20243;-86
2022/11/07 06:19:05;;;;;;;1.40;1.30;;;11.70;75.20;11.70;96538.00;;;;5047992;28;20291;-85
2022/11/07 06:21:32;;;;;;;1.03;1.00;;;11.60;75.20;11.60;96536.00;;;;5051231;28;20644;-85
2022/11/07 06:23:59;;;;;;;1.17;1.10;;;11.70;75.30;11.60;96548.00;;;;5051248;28;20271;-86
2022/11/07 06:26:26;;;;;;;1.77;1.30;;;11.60;75.20;11.60;96549.00;;;;5052433;28;20296;-85
2022/11/07 06:28:54;;;;;;;3.43;1.60;;;11.60;76.10;11.60;96552.00;;;;5052379;28;20580;-84
2022/11/07 06:31:21;;;;;;;1.90;1.63;;;11.60;75.70;11.60;96548.00;;;;5045095;28;20312;-84
2022/11/07 06:33:50;;;;;;;1.40;1.30;;;11.60;75.90;11.60;96551.00;;;;5035039;28;20641;-83
2022/11/07 06:36:19;;;;;;;1.90;1.67;;;11.60;76.00;11.60;96545.00;;;;5040292;28;20189;-84
2022/11/07 06:38:51;;;;;;;2.40;1.50;;;11.60;76.00;11.70;96555.00;;;;5054412;28;20219;-84
2022/11/07 06:41:18;;;;;;;1.43;1.33;;;11.60;76.00;11.70;96557.00;;;;5053331;28;20227;-84
2022/11/07 06:43:45;;;;;;;1.50;1.40;;;11.60;76.00;11.70;96560.00;;;;5052943;28;20608;-84
2022/11/07 06:46:16;;;;;;;1.67;1.30;;;11.50;75.80;11.70;96560.00;;;;5051808;28;20203;-84
2022/11/07 06:48:43;;;;;;;1.37;1.27;;;11.60;75.80;11.70;96560.00;;;;5053857;28;20192;-84
2022/11/07 06:51:11;;;;;;;2.70;1.50;;;11.50;75.70;11.70;96554.00;;;;5047916;28;20713;-84
2022/11/07 06:53:39;;;;;;;2.10;1.17;;;11.50;75.70;11.70;96565.00;;;;5045994;28;20228;-84
2022/11/07 06:56:13;;;;;;;1.30;1.20;;;11.50;75.80;11.70;96572.00;;;;5054000;28;20243;-85
2022/11/07 06:58:40;;;;;;;1.63;1.53;;;11.50;75.90;11.70;96568.00;;;;5052216;28;20212;-85
2022/11/07 07:01:12;;;;;;;1.97;1.30;;;11.50;76.00;11.70;96576.00;;;;5046032;28;20228;-85
2022/11/07 07:03:39;;;;;;;1.60;1.50;;;11.50;76.80;11.70;96558.00;;;;5052161;28;20193;-85
2022/11/07 07:06:11;;;;;;;1.50;1.40;;;11.50;76.10;11.70;96567.00;;;;5049695;28;20189;-85
2022/11/07 07:08:40;;;;;;;1.60;1.50;;;11.50;76.20;11.70;96579.00;;;;5047360;28;20628;-85
2022/11/07 07:11:11;;;;;;;1.40;1.30;;;11.50;76.20;11.70;96579.00;;;;5044398;28;20218;-85
2022/11/07 07:13:39;;;;;;;1.60;1.50;;;11.50;76.30;11.70;96587.00;;;;5049452;28;20220;-85
2022/11/07 07:16:08;;;;;;;1.70;1.60;;;11.50;76.40;11.70;96573.00;;;;5050014;28;20215;-85
2022/11/07 07:18:35;;;;;;;2.17;1.30;;;11.50;76.40;11.70;96582.00;;;;5051378;28;20251;-85
2022/11/07 07:21:05;;;;;;;2.30;1.53;;;11.50;76.60;11.80;96587.00;;;;5046838;28;20235;-84
2022/11/07 07:23:33;;;;;;;1.90;1.80;;;11.50;76.70;11.80;96581.00;;;;5045479;28;20651;-85
2022/11/07 07:26:02;;;;;;;1.57;1.47;;;11.60;76.90;11.80;96586.00;;;;5075784;22;20241;-87
2022/11/07 07:28:30;;;;;;;1.57;1.47;;;11.60;77.10;11.90;96587.00;;;;5051258;28;20295;-87
2022/11/07 07:31:10;;;;;;;2.40;2.00;;;11.60;77.30;11.90;96584.00;;;;5055005;28;20634;-87
2022/11/07 07:33:37;;;;;;;1.93;1.70;;;11.70;77.90;12.00;96590.00;;;;5052672;28;20251;-87
2022/11/07 07:36:06;;;;;;;1.80;1.70;;;11.70;78.70;12.00;96587.00;;;;5052157;28;20307;-87
2022/11/07 07:38:33;;;;;;;1.70;1.60;;;11.70;78.30;12.10;96587.00;;;;5052153;28;20196;-86
2022/11/07 07:41:02;;;;;;;3.17;2.50;;;11.80;78.60;12.20;96589.00;;;;5053015;28;20310;-87
2022/11/07 07:43:30;;;;;;;3.37;2.70;;;11.90;78.90;12.30;96589.00;;;;5048282;28;20270;-87
2022/11/07 07:45:58;;;;;;;5.03;4.33;;;12.00;79.20;12.50;96599.00;;;;5051539;28;20220;-87
2022/11/07 07:48:26;;;;;;;6.20;5.00;;;12.10;79.70;12.60;96593.00;;;;5055305;28;20193;-87
2022/11/07 07:50:53;;;;;;;7.83;6.03;;;12.10;79.90;12.70;96586.00;;;;5060411;28;20323;-86
2022/11/07 07:53:21;;;;;;;8.13;6.63;;;12.20;80.10;12.80;96585.00;;;;5049649;28;20198;-87
2022/11/07 07:55:48;;;;;;;13.17;7.27;;;12.30;80.30;12.90;96591.00;;;;5054833;28;20259;-87
2022/11/07 07:58:16;;;;;;;9.17;6.07;;;12.40;80.30;13.00;96597.00;;;;5056359;28;20197;-87
2022/11/07 08:00:43;;;;;;;8.50;6.07;;;12.60;80.40;13.10;96596.00;;;;5051003;28;20249;-87
2022/11/07 08:03:12;;;;;;;5.73;4.73;;;12.70;80.40;13.20;96588.00;;;;5053604;28;20224;-87
2022/11/07 08:05:40;;;;;;;3.70;3.20;;;12.80;80.50;13.40;96589.00;;;;5059692;28;20259;-87
2022/11/07 08:08:08;;;;;;;3.77;3.40;;;12.90;80.50;13.50;96589.00;;;;5051537;28;20391;-87
2022/11/07 08:10:35;;;;;;;5.23;3.30;;;13.00;80.60;13.60;96596.00;;;;5052353;28;20288;-87
2022/11/07 08:13:02;;;;;;;4.27;2.07;;;13.10;80.60;13.70;96599.00;;;;5060767;28;20192;-87
2022/11/07 08:15:31;;;;;;;1.97;1.50;;;13.20;80.60;13.80;96602.00;;;;5059621;28;20304;-87
2022/11/07 08:18:02;;;;;;;1.50;1.30;;;13.30;80.50;13.90;96595.00;;;;5054633;28;20691;-87
2022/11/07 08:20:29;;;;;;;1.10;1.00;;;13.40;80.30;14.10;96605.00;;;;5059220;28;20302;-86
2022/11/07 08:23:01;;;;;;;1.40;1.00;;;13.60;80.10;14.20;96601.00;;;;5057981;28;20200;-87
2022/11/07 08:25:29;;;;;;;1.60;1.03;;;13.70;79.90;14.30;96595.00;;;;5058916;28;20787;-86
2022/11/07 08:27:56;;;;;;;1.20;1.10;;;13.80;79.90;14.40;96603.00;;;;5056501;28;20204;-87
2022/11/07 08:30:23;;;;;;;1.03;0.90;;;13.90;79.90;14.50;96606.00;;;;5067481;28;20707;-87
2022/11/07 08:32:52;;;;;;;1.27;0.83;;;14.00;79.60;14.70;96609.00;;;;5051090;28;20283;-87
2022/11/07 08:35:19;;;;;;;1.10;0.90;;;14.10;79.50;14.80;96610.00;;;;5055915;28;20815;-87
2022/11/07 08:37:46;;;;;;;0.93;0.80;;;14.20;79.40;14.90;96617.00;;;;5052937;28;20674;-88
2022/11/07 08:40:16;;;;;;;1.00;0.90;;;14.30;79.30;15.00;96628.00;;;;5049540;28;20212;-87
2022/11/07 08:42:43;;;;;;;2.10;1.00;;;14.40;78.80;15.10;96618.00;;;;5054240;28;20279;-86
2022/11/07 08:45:11;;;;;;;0.77;0.77;;;14.50;78.50;15.10;96614.00;;;;5053587;28;20303;-88
2022/11/07 08:47:38;;;;;;;1.50;0.90;;;14.60;78.30;15.30;96615.00;;;;5056345;28;20284;-87
2022/11/07 08:50:07;;;;;;;0.77;0.70;;;14.70;78.20;15.30;96616.00;;;;5060513;28;20230;-87
2022/11/07 08:52:35;;;;;;;0.53;0.53;;;14.80;77.70;15.40;96616.00;;;;5057470;28;20283;-87
2022/11/07 08:55:02;;;;;;;1.43;0.67;;;14.90;77.30;15.50;96623.00;;;;5061533;28;20208;-87
2022/11/07 08:57:29;;;;;;;1.23;0.77;;;15.00;77.20;15.60;96614.00;;;;5062001;28;20200;-87
2022/11/07 08:59:57;;;;;;;1.77;1.10;;;15.10;77.10;15.70;96622.00;;;;5058849;28;20229;-87
2022/11/07 09:02:24;;;;;;;0.50;0.50;;;15.20;76.60;15.70;96628.00;;;;5054520;28;20232;-87
2022/11/07 09:04:51;;;;;;;1.00;1.00;;;15.30;76.50;15.80;96627.00;;;;5061101;28;20224;-88
2022/11/07 09:07:19;;;;;;;0.93;0.60;;;15.40;76.30;15.80;96629.00;;;;5057379;28;20340;-87
2022/11/07 09:09:46;;;;;;;1.77;0.80;;;15.40;75.70;15.90;96620.00;;;;5059035;28;20228;-87
2022/11/07 09:12:13;;;;;;;0.73;0.73;;;15.50;75.30;16.00;96625.00;;;;5053888;28;20197;-86
2022/11/07 09:14:40;;;;;;;0.93;0.60;;;15.60;75.00;16.10;96636.00;;;;5068813;28;20246;-86
2022/11/07 09:17:08;;;;;;;1.83;0.70;;;15.70;75.20;16.20;96633.00;;;;5048005;28;20228;-86
2022/11/07 09:19:35;;;;;;;0.70;0.70;;;15.70;75.00;16.20;96633.00;;;;5054375;28;20193;-86
2022/11/07 09:22:02;;;;;;;0.50;0.50;;;15.80;74.70;16.40;96640.00;;;;5058339;28;20733;-86
2022/11/07 09:24:30;;;;;;;1.23;0.60;;;15.90;74.80;16.50;96635.00;;;;5062316;28;20660;-87
2022/11/07 09:26:57;;;;;;;0.60;0.50;;;16.00;74.80;16.70;96641.00;;;;5059280;28;20280;-87
2022/11/07 09:29:24;;;;;;;0.60;0.60;;;16.10;75.00;16.90;96637.00;;;;5053957;28;20731;-86
2022/11/07 09:31:52;;;;;;;1.00;0.63;;;16.30;75.10;17.10;96639.00;;;;5056473;28;20300;-86
2022/11/07 09:34:19;;;;;;;0.97;0.60;;;16.40;74.90;17.30;96645.00;;;;5057994;28;20212;-87
2022/11/07 09:36:46;;;;;;;0.63;0.53;;;16.60;74.60;17.50;96649.00;;;;5053403;28;20323;-87
2022/11/07 09:39:13;;;;;;;0.40;0.40;;;16.80;75.00;17.70;96651.00;;;;5055112;28;20210;-86
2022/11/07 09:41:56;;;;;;;0.40;0.40;;;17.00;74.80;18.00;96648.00;;;;5056413;28;20335;-87
2022/11/07 09:44:54;;;;;;;1.07;0.60;;;17.30;73.60;18.20;96654.00;;;;5052360;28;20230;-86
2022/11/07 09:47:31;;;;;;;0.87;0.87;;;17.60;73.40;18.40;96651.00;;;;5051993;28;20564;-86
2022/11/07 09:50:04;;;;;;;0.50;0.50;;;17.80;73.90;18.60;96642.00;;;;5061853;28;20298;-87
2022/11/07 09:52:41;;;;;;;0.40;0.40;;;18.10;73.80;18.90;96648.00;;;;5048982;28;20189;-86
2022/11/07 09:55:18;;;;;;;0.50;0.50;;;18.30;73.20;19.00;96647.00;;;;5054374;28;20689;-86
2022/11/07 09:57:56;;;;;;;0.93;0.50;;;18.50;74.00;19.20;96640.00;;;;5054026;28;20224;-87
2022/11/07 10:00:31;;;;;;;0.63;0.47;;;18.80;73.30;19.40;96652.00;;;;5052279;28;20547;-87
2022/11/07 10:03:00;;;;;;;1.20;0.40;;;19.00;72.40;19.60;96647.00;;;;5056935;28;20291;-86
2022/11/07 10:05:45;;;;;;;0.50;0.50;;;19.20;72.00;19.80;96656.00;;;;5067544;28;20697;-86
2022/11/07 10:08:18;;;;;;;0.50;0.47;;;19.40;70.40;20.00;96654.00;;;;5054558;28;20219;-87
2022/11/07 10:10:53;;;;;;;0.70;0.70;;;19.60;69.30;20.10;96647.00;;;;5058121;28;20194;-87
2022/11/07 10:13:50;;;;;;;0.40;0.40;;;19.70;68.80;20.20;96652.00;;;;5061833;28;20343;-87
2022/11/07 10:16:28;;;;;;;1.00;0.60;;;19.90;68.30;20.30;96652.00;;;;5059886;28;20216;-87
2022/11/07 10:19:18;;;;;;;0.37;0.33;;;20.00;68.70;20.40;96644.00;;;;5056540;28;20226;-86
2022/11/07 10:21:58;;;;;;;0.60;0.50;;;20.20;67.60;20.50;96649.00;;;;5053430;28;20212;-87
2022/11/07 10:24:55;;;;;;;0.40;0.30;;;20.30;67.00;20.50;96656.00;;;;5060940;28;20304;-86
2022/11/07 10:27:23;;;;;;;0.67;0.50;;;20.30;65.50;20.50;96653.00;;;;5067020;28;20287;-86
2022/11/07 10:29:55;;;;;;;0.80;0.60;;;20.40;65.30;20.50;96653.00;;;;5058233;28;20203;-86
2022/11/07 10:32:29;;;;;;;0.90;0.70;;;20.40;64.40;20.50;96649.00;;;;5053512;28;20194;-86
2022/11/07 10:35:17;;;;;;;1.07;0.50;;;20.30;63.70;20.40;96653.00;;;;5053432;28;20220;-87
2022/11/07 10:37:53;;;;;;;1.93;0.60;;;20.30;63.40;20.30;96650.00;;;;5047802;28;20224;-87
2022/11/07 10:40:27;;;;;;;1.03;0.43;;;20.20;63.50;20.30;96649.00;;;;5048006;28;20739;-86
2022/11/07 10:42:55;;;;;;;0.50;0.50;;;20.20;63.20;20.20;96653.00;;;;5052526;28;20275;-87
2022/11/07 10:45:27;;;;;;;1.20;1.07;;;20.20;63.20;20.20;96646.00;;;;5052188;28;20216;-87
2022/11/07 10:48:00;;;;;;;0.50;0.50;;;20.10;63.40;20.10;96645.00;;;;5047217;28;20284;-86
2022/11/07 10:50:27;;;;;;;0.43;0.43;;;20.00;62.90;20.10;96652.00;;;;5056025;28;20281;-87
2022/11/07 10:52:57;;;;;;;0.53;0.40;;;20.00;63.10;20.10;96646.00;;;;5060831;28;20197;-86
2022/11/07 10:55:26;;;;;;;1.43;0.67;;;19.90;63.20;20.00;96644.00;;;;5055618;28;20220;-85
2022/11/07 10:57:58;;;;;;;2.13;1.40;;;19.90;63.20;20.00;96640.00;;;;5040500;28;20206;-85
2022/11/07 11:00:31;;;;;;;0.97;0.80;;;19.80;62.70;19.90;96647.00;;;;5064246;28;20904;-86
2022/11/07 11:02:59;;;;;;;1.33;0.60;;;19.70;62.70;19.90;96634.00;;;;5044408;28;20283;-85
2022/11/07 11:05:33;;;;;;;0.30;0.30;;;19.70;62.90;19.80;96638.00;;;;5063981;28;20645;-86
2022/11/07 11:08:15;;;;;;;0.47;0.40;;;19.60;62.80;19.80;96638.00;;;;5052487;28;20197;-86
2022/11/07 11:10:43;;;;;;;1.03;0.53;;;19.60;62.20;19.80;96638.00;;;;5053566;28;20287;-86
2022/11/07 11:13:26;;;;;;;0.57;0.40;;;19.60;62.90;19.80;96643.00;;;;5050259;28;20343;-84
2022/11/07 11:15:57;;;;;;;0.53;0.50;;;19.50;62.30;19.70;96644.00;;;;5053215;28;20224;-86